createdAt,value
2023-05-03T00:01:14.215Z,102879.81
2023-05-03T00:03:48.886Z,102882.03
2023-05-03T00:06:22.128Z,102889.34
2023-05-03T00:08:55.083Z,102888.06
2023-05-03T00:11:27.954Z,102884.34
2023-05-03T00:14:01.012Z,102888.56
2023-05-03T00:16:33.831Z,102886.13
2023-05-03T00:19:10.702Z,102889.19
2023-05-03T00:21:50.741Z,102882.13
2023-05-03T00:24:23.546Z,102878.91
2023-05-03T00:26:56.757Z,102881.16
2023-05-03T00:29:29.535Z,102878.41
2023-05-03T00:32:04.300Z,102881.50
2023-05-03T00:34:38.595Z,102879.72
2023-05-03T00:37:12.213Z,102878.41
2023-05-03T00:39:45.335Z,102883.59
2023-05-03T00:42:18.030Z,102882.47
2023-05-03T00:44:51.422Z,102875.22
2023-05-03T00:47:25.670Z,102887.50
2023-05-03T00:50:01.894Z,102883.47
2023-05-03T00:52:35.841Z,102887.66
2023-05-03T00:55:10.858Z,102896.69
2023-05-03T00:57:44.070Z,102897.66
2023-05-03T01:00:18.984Z,102893.94
2023-05-03T01:02:52.138Z,102894.56
2023-05-03T01:05:28.764Z,102893.94
2023-05-03T01:08:10.962Z,102893.47
2023-05-03T01:10:49.768Z,102892.34
2023-05-03T01:13:29.340Z,102884.25
2023-05-03T01:16:07.703Z,102878.75
2023-05-03T01:18:44.245Z,102890.22
2023-05-03T01:21:20.243Z,102880.22
2023-05-03T01:24:00.703Z,102870.69
2023-05-03T01:26:34.778Z,102865.84
2023-05-03T01:29:07.993Z,102870.34
2023-05-03T01:31:48.934Z,102873.75
2023-05-03T01:34:29.857Z,102866.00
2023-05-03T01:37:05.155Z,102867.47
2023-05-03T01:39:42.323Z,102851.00
2023-05-03T01:42:17.630Z,102840.66
2023-05-03T01:44:51.193Z,102837.44
2023-05-03T01:47:24.338Z,102831.28
2023-05-03T01:49:57.026Z,102810.97
2023-05-03T01:52:30.265Z,102803.69
2023-05-03T01:55:02.966Z,102803.19
2023-05-03T01:57:37.464Z,102802.06
2023-05-03T02:00:11.725Z,102806.56
2023-05-03T02:02:47.298Z,102807.53
2023-05-03T02:05:19.958Z,102795.91
2023-05-03T02:07:52.724Z,102816.56
2023-05-03T02:10:25.494Z,102817.19
2023-05-03T02:13:03.068Z,102819.78
2023-05-03T02:15:35.853Z,102807.69
2023-05-03T02:18:09.388Z,102826.06
2023-05-03T02:20:46.349Z,102826.56
2023-05-03T02:23:19.047Z,102835.44
2023-05-03T02:25:51.884Z,102840.91
2023-05-03T02:28:26.044Z,102841.88
2023-05-03T02:30:59.166Z,102841.06
2023-05-03T02:33:31.950Z,102837.53
2023-05-03T02:36:05.434Z,102839.47
2023-05-03T02:38:38.231Z,102850.44
2023-05-03T02:41:11.302Z,102845.41
2023-05-03T02:43:45.495Z,102847.66
2023-05-03T02:46:18.959Z,102840.72
2023-05-03T02:48:51.723Z,102847.16
2023-05-03T02:51:25.541Z,102853.94
2023-05-03T02:53:58.322Z,102865.19
2023-05-03T02:56:31.034Z,102855.53
2023-05-03T02:59:05.571Z,102862.31
2023-05-03T03:01:38.423Z,102869.25
2023-05-03T03:04:11.077Z,102869.72
2023-05-03T03:06:43.888Z,102870.31
2023-05-03T03:09:18.036Z,102868.56
2023-05-03T03:11:52.484Z,102865.97
2023-05-03T03:14:27.115Z,102865.34
2023-05-03T03:17:00.007Z,102868.34
2023-05-03T03:19:32.838Z,102859.31
2023-05-03T03:22:05.717Z,102858.19
2023-05-03T03:24:38.394Z,102861.38
2023-05-03T03:27:11.470Z,102860.56
2023-05-03T03:29:45.625Z,102865.41
2023-05-03T03:32:19.558Z,102875.25
2023-05-03T03:34:52.727Z,102871.50
2023-05-03T03:37:25.535Z,102877.78
2023-05-03T03:39:58.824Z,102875.84
2023-05-03T03:42:31.974Z,102879.84
2023-05-03T03:45:06.585Z,102885.97
2023-05-03T03:47:39.811Z,102886.91
2023-05-03T03:50:12.743Z,102885.28
2023-05-03T03:52:45.524Z,102893.19
2023-05-03T03:55:18.320Z,102886.25
2023-05-03T03:57:54.015Z,102892.31
2023-05-03T04:00:29.378Z,102897.63
2023-05-03T04:03:11.007Z,102899.38
2023-05-03T04:05:44.040Z,102892.00
2023-05-03T04:08:16.755Z,102882.50
2023-05-03T04:10:50.189Z,102892.31
2023-05-03T04:13:23.711Z,102886.97
2023-05-03T04:16:02.516Z,102891.84
2023-05-03T04:18:36.339Z,102886.16
2023-05-03T04:21:09.934Z,102886.00
2023-05-03T04:23:42.743Z,102880.03
2023-05-03T04:26:30.575Z,102878.25
2023-05-03T04:29:08.174Z,102869.88
2023-05-03T04:31:43.854Z,102877.09
2023-05-03T04:34:17.724Z,102871.94
2023-05-03T04:36:53.641Z,102868.56
2023-05-03T04:39:26.478Z,102865.97
2023-05-03T04:41:59.817Z,102876.53
2023-05-03T04:44:32.599Z,102873.50
2023-05-03T04:47:06.752Z,102874.63
2023-05-03T04:49:39.929Z,102873.19
2023-05-03T04:52:13.012Z,102877.66
2023-05-03T04:54:46.061Z,102873.66
2023-05-03T04:57:19.107Z,102879.78
2023-05-03T04:59:53.939Z,102880.25
2023-05-03T05:02:28.335Z,102887.66
2023-05-03T05:05:01.094Z,102884.25
2023-05-03T05:07:34.367Z,102879.78
2023-05-03T05:10:09.105Z,102882.78
2023-05-03T05:12:42.109Z,102891.59
2023-05-03T05:15:15.036Z,102894.81
2023-05-03T05:17:49.269Z,102903.03
2023-05-03T05:20:23.212Z,102895.66
2023-05-03T05:22:56.464Z,102895.19
2023-05-03T05:25:29.322Z,102906.97
2023-05-03T05:28:03.505Z,102906.66
2023-05-03T05:30:36.800Z,102914.44
2023-05-03T05:33:10.983Z,102916.00
2023-05-03T05:35:46.552Z,102912.44
2023-05-03T05:38:19.919Z,102919.34
2023-05-03T05:40:53.081Z,102915.25
2023-05-03T05:43:26.484Z,102917.63
2023-05-03T05:46:00.849Z,102915.69
2023-05-03T05:48:34.977Z,102910.06
2023-05-03T05:51:08.448Z,102913.00
2023-05-03T05:53:41.180Z,102917.94
2023-05-03T05:56:14.859Z,102905.91
2023-05-03T05:58:47.506Z,102900.22
2023-05-03T06:01:20.423Z,102907.63
2023-05-03T06:03:55.472Z,102904.91
2023-05-03T06:06:30.231Z,102905.72
2023-05-03T06:09:16.659Z,102900.31
2023-05-03T06:11:56.757Z,102902.06
2023-05-03T06:14:31.904Z,102901.41
2023-05-03T06:17:05.083Z,102898.81
2023-05-03T06:19:39.328Z,102894.69
2023-05-03T06:22:12.350Z,102896.09
2023-05-03T06:24:45.682Z,102892.72
2023-05-03T06:27:18.727Z,102890.84
2023-05-03T06:29:53.064Z,102891.09
2023-05-03T06:32:26.794Z,102890.22
2023-05-03T06:35:02.057Z,102889.28
2023-05-03T06:37:35.178Z,102889.94
2023-05-03T06:40:08.642Z,102896.97
2023-05-03T06:42:42.903Z,102896.06
2023-05-03T06:45:24.393Z,102885.91
2023-05-03T06:47:57.242Z,102874.84
2023-05-03T06:50:31.726Z,102884.91
2023-05-03T06:53:04.438Z,102880.91
2023-05-03T06:55:37.145Z,102878.53
2023-05-03T06:58:13.027Z,102873.91
2023-05-03T07:00:46.687Z,102875.22
2023-05-03T07:03:19.787Z,102873.94
2023-05-03T07:05:54.082Z,102873.47
2023-05-03T07:08:26.863Z,102863.41
2023-05-03T07:10:59.880Z,102863.13
2023-05-03T07:13:32.781Z,102857.28
2023-05-03T07:16:06.530Z,102855.81
2023-05-03T07:18:39.345Z,102857.72
2023-05-03T07:21:13.497Z,102857.84
2023-05-03T07:23:46.283Z,102854.56
2023-05-03T07:26:20.208Z,102854.84
2023-05-03T07:28:53.010Z,102852.56
2023-05-03T07:31:25.885Z,102850.50
2023-05-03T07:33:58.718Z,102853.47
2023-05-03T07:36:33.137Z,102851.81
2023-05-03T07:39:06.322Z,102856.72
2023-05-03T07:41:39.381Z,102866.38
2023-05-03T07:44:12.462Z,102862.34
2023-05-03T07:46:45.290Z,102864.84
2023-05-03T07:49:18.103Z,102860.28
2023-05-03T07:51:52.369Z,102865.38
2023-05-03T07:54:25.073Z,102860.56
2023-05-03T07:56:58.135Z,102861.06
2023-05-03T07:59:30.909Z,102852.94
2023-05-03T08:02:03.774Z,102853.50
2023-05-03T08:04:37.220Z,102846.38
2023-05-03T08:07:11.846Z,102850.16
2023-05-03T08:09:44.739Z,102851.66
2023-05-03T08:12:17.888Z,102839.06
2023-05-03T08:14:50.753Z,102836.25
2023-05-03T08:17:24.123Z,102846.09
2023-05-03T08:19:57.282Z,102850.31
2023-05-03T08:22:31.385Z,102850.09
2023-05-03T08:25:04.760Z,102852.38
2023-05-03T08:27:38.608Z,102860.56
2023-05-03T08:30:14.812Z,102859.63
2023-05-03T08:32:48.091Z,102862.06
2023-05-03T08:35:20.757Z,102859.72
2023-05-03T08:37:55.370Z,102856.88
2023-05-03T08:40:30.917Z,102858.09
2023-05-03T08:43:09.630Z,102867.66
2023-05-03T08:45:42.404Z,102880.28
2023-05-03T08:48:17.669Z,102880.69
2023-05-03T08:50:53.782Z,102876.16
2023-05-03T08:53:27.998Z,102869.72
2023-05-03T08:56:05.433Z,102875.03
2023-05-03T08:58:38.631Z,102878.41
2023-05-03T09:01:11.633Z,102873.00
2023-05-03T09:03:52.884Z,102877.31
2023-05-03T09:06:27.267Z,102872.31
2023-05-03T09:09:02.675Z,102871.78
2023-05-03T09:11:37.532Z,102878.47
2023-05-03T09:14:13.146Z,102880.72
2023-05-03T09:16:47.739Z,102872.28
2023-05-03T09:19:21.761Z,102880.25
2023-05-03T09:22:07.656Z,102888.28
2023-05-03T09:24:53.300Z,102869.44
2023-05-03T09:27:27.494Z,102871.19
2023-05-03T09:30:19.266Z,102868.19
2023-05-03T09:32:52.260Z,102869.16
2023-05-03T09:35:26.204Z,102868.72
2023-05-03T09:38:00.981Z,102864.00
2023-05-03T09:40:37.126Z,102861.66
2023-05-03T09:43:11.980Z,102874.66
2023-05-03T09:45:44.927Z,102870.53
2023-05-03T09:48:20.816Z,102881.59
2023-05-03T09:54:04.173Z,102872.56
2023-05-03T09:56:41.629Z,102882.28
2023-05-03T10:12:29.448Z,102864.72
2023-05-03T10:19:15.134Z,102856.81
2023-05-03T10:22:05.286Z,102860.75
2023-05-03T10:24:40.511Z,102855.69
2023-05-03T10:36:27.300Z,102851.28
2023-05-03T10:42:59.632Z,102851.44
2023-05-03T10:49:28.181Z,102851.16
2023-05-03T10:52:02.497Z,102852.78
2023-05-03T10:54:35.767Z,102845.00
2023-05-03T10:57:08.957Z,102834.09
2023-05-03T10:59:48.751Z,102832.91
2023-05-03T11:02:28.202Z,102842.47
2023-05-03T11:05:06.097Z,102832.22
2023-05-03T11:07:40.717Z,102832.84
2023-05-03T11:10:17.915Z,102812.81
2023-05-03T11:12:50.731Z,102811.72
2023-05-03T11:15:23.406Z,102812.47
2023-05-03T11:17:56.461Z,102809.00
2023-05-03T11:20:29.468Z,102795.38
2023-05-03T11:23:03.902Z,102798.81
2023-05-03T11:25:36.831Z,102807.63
2023-05-03T11:28:09.373Z,102798.06
2023-05-03T11:30:42.046Z,102798.47
2023-05-03T11:33:14.927Z,102802.50
2023-05-03T11:35:47.764Z,102797.63
2023-05-03T11:38:21.808Z,102787.66
2023-05-03T11:40:54.514Z,102788.94
2023-05-03T11:43:27.380Z,102792.81
2023-05-03T11:46:00.678Z,102771.97
2023-05-03T11:48:33.908Z,102778.09
2023-05-03T11:51:11.428Z,102772.88
2023-05-03T11:53:48.308Z,102780.16
2023-05-03T11:56:22.862Z,102779.38
2023-05-03T11:58:58.394Z,102772.44
2023-05-03T12:01:31.650Z,102761.81
2023-05-03T12:04:06.663Z,102754.53
2023-05-03T12:06:42.758Z,102753.13
2023-05-03T12:09:18.814Z,102749.84
2023-05-03T12:11:54.267Z,102752.28
2023-05-03T12:14:29.338Z,102751.47
2023-05-03T12:17:02.343Z,102745.06
2023-05-03T12:19:38.524Z,102735.22
2023-05-03T12:22:25.924Z,102734.72
2023-05-03T12:25:03.911Z,102732.75
2023-05-03T12:27:38.034Z,102728.31
2023-05-03T12:30:17.526Z,102729.09
2023-05-03T12:32:51.322Z,102721.09
2023-05-03T12:35:27.622Z,102710.41
2023-05-03T12:38:03.048Z,102706.63
2023-05-03T12:40:37.532Z,102702.88
2023-05-03T12:43:10.686Z,102709.97
2023-05-03T12:45:46.984Z,102697.84
2023-05-03T12:48:25.747Z,102693.25
2023-05-03T12:51:17.905Z,102699.66
2023-05-03T12:53:55.279Z,102691.72
2023-05-03T12:56:32.865Z,102689.84
2023-05-03T12:59:27.488Z,102683.28
2023-05-03T13:04:56.655Z,102674.00
2023-05-03T13:07:31.598Z,102674.53
2023-05-03T13:12:44.502Z,102667.84
2023-05-03T13:15:17.540Z,102667.25
2023-05-03T13:17:52.103Z,102659.41
2023-05-03T13:20:25.044Z,102651.66
2023-05-03T13:22:58.616Z,102646.06
2023-05-03T13:25:31.481Z,102648.41
2023-05-03T13:28:05.495Z,102638.66
2023-05-03T13:30:38.280Z,102632.31
2023-05-03T13:33:10.982Z,102625.75
2023-05-03T13:35:44.620Z,102634.69
2023-05-03T13:38:18.099Z,102630.25
2023-05-03T13:40:51.102Z,102620.13
2023-05-03T13:43:25.236Z,102614.72
2023-05-03T13:46:01.575Z,102619.72
2023-05-03T13:48:34.426Z,102609.44
2023-05-03T13:51:10.409Z,102602.13
2023-05-03T13:53:44.200Z,102596.44
2023-05-03T13:56:17.660Z,102591.84
2023-05-03T13:58:51.870Z,102588.16
2023-05-03T14:01:24.908Z,102591.69
2023-05-03T14:03:58.095Z,102577.56
2023-05-03T14:06:33.026Z,102580.72
2023-05-03T14:09:06.664Z,102582.78
2023-05-03T14:11:42.294Z,102590.81
2023-05-03T14:14:16.791Z,102564.06
2023-05-03T14:16:49.705Z,102551.69
2023-05-03T14:19:23.766Z,102560.44
2023-05-03T14:21:59.582Z,102564.75
2023-05-03T14:24:32.363Z,102550.66
2023-05-03T14:27:05.178Z,102549.63
2023-05-03T14:29:39.223Z,102550.25
2023-05-03T14:32:11.896Z,102539.47
2023-05-03T14:34:44.973Z,102531.81
2023-05-03T14:37:18.141Z,102531.09
2023-05-03T14:39:51.846Z,102534.63
2023-05-03T14:42:24.639Z,102522.06
2023-05-03T14:44:58.783Z,102525.66
2023-05-03T14:47:31.654Z,102521.69
2023-05-03T14:50:04.982Z,102525.88
2023-05-03T14:52:37.939Z,102528.34
2023-05-03T14:55:10.965Z,102520.03
2023-05-03T14:57:43.900Z,102512.63
2023-05-03T15:00:18.402Z,102512.03
2023-05-03T15:02:53.813Z,102514.50
2023-05-03T15:05:26.953Z,102515.84
2023-05-03T15:08:00.332Z,102518.53
2023-05-03T15:10:34.215Z,102507.28
2023-05-03T15:13:07.778Z,102509.88
2023-05-03T15:15:43.459Z,102501.97
2023-05-03T15:18:18.719Z,102511.63
2023-05-03T15:20:51.615Z,102500.81
2023-05-03T15:23:24.200Z,102508.00
2023-05-03T15:25:58.006Z,102508.16
2023-05-03T15:28:30.834Z,102500.84
2023-05-03T15:31:04.783Z,102495.84
2023-05-03T15:33:41.686Z,102490.25
2023-05-03T15:36:16.629Z,102490.78
2023-05-03T15:38:50.315Z,102486.59
2023-05-03T15:41:23.222Z,102489.41
2023-05-03T15:43:55.986Z,102488.88
2023-05-03T15:46:30.105Z,102490.09
2023-05-03T15:49:02.786Z,102485.84
2023-05-03T15:51:35.864Z,102480.53
2023-05-03T15:54:08.624Z,102484.47
2023-05-03T15:56:41.694Z,102475.66
2023-05-03T15:59:15.540Z,102471.75
2023-05-03T16:01:49.657Z,102469.00
2023-05-03T16:04:22.383Z,102469.66
2023-05-03T16:06:55.094Z,102470.81
2023-05-03T16:09:30.809Z,102469.78
2023-05-03T16:12:03.529Z,102474.53
2023-05-03T16:14:36.471Z,102473.41
2023-05-03T16:17:10.681Z,102465.09
2023-05-03T16:19:44.167Z,102460.31
2023-05-03T16:22:17.425Z,102465.44
2023-05-03T16:24:53.575Z,102463.88
2023-05-03T16:27:26.276Z,102459.88
2023-05-03T16:29:59.424Z,102466.22
2023-05-03T16:32:34.127Z,102467.84
2023-05-03T16:35:07.461Z,102472.16
2023-05-03T16:37:40.765Z,102463.97
2023-05-03T16:40:13.690Z,102460.59
2023-05-03T16:42:46.162Z,102463.75
2023-05-03T16:45:19.749Z,102463.72
2023-05-03T16:47:53.818Z,102457.97
2023-05-03T16:50:26.947Z,102459.59
2023-05-03T16:52:59.552Z,102451.34
2023-05-03T16:55:32.944Z,102447.69
2023-05-03T16:58:07.178Z,102445.94
2023-05-03T17:00:40.484Z,102441.56
2023-05-03T17:03:15.544Z,102440.72
2023-05-03T17:05:48.751Z,102448.69
2023-05-03T17:08:21.819Z,102442.69
2023-05-03T17:10:57.662Z,102442.31
2023-05-03T17:13:30.422Z,102441.53
2023-05-03T17:16:08.680Z,102439.91
2023-05-03T17:18:46.227Z,102442.31
2023-05-03T17:21:19.603Z,102447.09
2023-05-03T17:23:52.336Z,102443.91
2023-05-03T17:26:25.656Z,102431.97
2023-05-03T17:28:58.684Z,102431.19
2023-05-03T17:31:31.575Z,102433.59
2023-05-03T17:34:05.564Z,102427.25
2023-05-03T17:36:38.474Z,102431.22
2023-05-03T17:39:11.462Z,102428.44
2023-05-03T17:41:45.321Z,102428.03
2023-05-03T17:44:18.415Z,102434.41
2023-05-03T17:46:51.512Z,102436.78
2023-05-03T17:49:26.340Z,102432.00
2023-05-03T17:51:59.342Z,102431.25
2023-05-03T17:54:32.620Z,102427.25
2023-05-03T17:57:05.617Z,102431.19
2023-05-03T17:59:38.169Z,102431.97
2023-05-03T18:02:11.637Z,102430.78
2023-05-03T18:04:45.783Z,102439.91
2023-05-03T18:07:18.522Z,102439.91
2023-05-03T18:09:52.204Z,102439.50
2023-05-03T18:12:24.984Z,102435.09
2023-05-03T18:15:07.006Z,102439.84
2023-05-03T18:17:39.985Z,102433.88
2023-05-03T18:20:14.974Z,102439.81
2023-05-03T18:22:47.799Z,102431.06
2023-05-03T18:25:20.623Z,102436.56
2023-05-03T18:27:55.451Z,102436.88
2023-05-03T18:30:29.204Z,102430.50
2023-05-03T18:33:02.257Z,102436.06
2023-05-03T18:35:36.318Z,102437.22
2023-05-03T18:38:10.072Z,102437.97
2023-05-03T18:40:42.894Z,102437.91
2023-05-03T18:43:15.935Z,102437.09
2023-05-03T18:45:49.157Z,102443.44
2023-05-03T18:48:23.015Z,102435.41
2023-05-03T18:51:02.272Z,102427.41
2023-05-03T18:53:38.292Z,102425.03
2023-05-03T18:56:11.266Z,102428.97
2023-05-03T18:58:43.751Z,102420.97
2023-05-03T19:01:16.609Z,102421.72
2023-05-03T19:03:50.054Z,102414.47
2023-05-03T19:06:24.585Z,102418.78
2023-05-03T19:08:57.309Z,102419.53
2023-05-03T19:11:40.097Z,102412.38
2023-05-03T19:14:14.156Z,102417.06
2023-05-03T19:16:47.119Z,102415.34
2023-05-03T19:19:20.521Z,102414.53
2023-05-03T19:21:54.978Z,102417.66
2023-05-03T19:24:28.349Z,102427.16
2023-05-03T19:27:01.273Z,102411.63
2023-05-03T19:29:34.142Z,102408.38
2023-05-03T19:32:07.161Z,102413.88
2023-05-03T19:34:39.992Z,102409.91
2023-05-03T19:37:14.093Z,102411.81
2023-05-03T19:39:47.220Z,102413.19
2023-05-03T19:42:21.225Z,102413.16
2023-05-03T19:44:54.060Z,102409.59
2023-05-03T19:47:26.933Z,102409.16
2023-05-03T19:49:59.834Z,102407.16
2023-05-03T19:52:34.223Z,102407.06
2023-05-03T19:55:07.774Z,102406.16
2023-05-03T19:57:40.496Z,102413.13
2023-05-03T20:00:15.735Z,102406.41
2023-05-03T20:02:48.674Z,102408.41
2023-05-03T20:05:21.428Z,102401.94
2023-05-03T20:07:55.740Z,102403.91
2023-05-03T20:10:31.608Z,102408.97
2023-05-03T20:13:04.862Z,102400.19
2023-05-03T20:15:38.166Z,102411.25
2023-05-03T20:18:11.189Z,102406.00
2023-05-03T20:20:44.124Z,102403.91
2023-05-03T20:23:18.495Z,102402.25
2023-05-03T20:25:51.793Z,102399.19
2023-05-03T20:28:32.344Z,102390.38
2023-05-03T20:31:05.321Z,102395.81
2023-05-03T20:33:38.554Z,102393.25
2023-05-03T20:36:14.186Z,102394.03
2023-05-03T20:38:48.391Z,102391.09
2023-05-03T20:41:21.693Z,102384.34
2023-05-03T20:43:54.993Z,102375.63
2023-05-03T20:46:28.165Z,102379.00
2023-05-03T20:49:01.024Z,102379.88
2023-05-03T20:51:33.785Z,102376.97
2023-05-03T20:54:08.150Z,102381.84
2023-05-03T20:56:41.019Z,102380.72
2023-05-03T20:59:13.856Z,102380.59
2023-05-03T21:01:47.035Z,102383.06
2023-05-03T21:04:20.270Z,102378.97
2023-05-03T21:06:53.375Z,102375.31
2023-05-03T21:09:27.605Z,102380.94
2023-05-03T21:12:01.486Z,102377.66
2023-05-03T21:14:34.202Z,102378.09
2023-05-03T21:17:08.780Z,102372.31
2023-05-03T21:19:42.166Z,102366.72
2023-05-03T21:22:15.086Z,102373.97
2023-05-03T21:24:49.294Z,102371.81
2023-05-03T21:27:22.238Z,102368.13
2023-05-03T21:29:54.808Z,102362.81
2023-05-03T21:32:27.919Z,102367.84
2023-05-03T21:35:00.731Z,102363.03
2023-05-03T21:37:33.589Z,102369.88
2023-05-03T21:40:09.275Z,102355.91
2023-05-03T21:42:42.694Z,102354.84
2023-05-03T21:45:15.643Z,102360.28
2023-05-03T21:47:48.801Z,102354.31
2023-05-03T21:50:23.642Z,102361.16
2023-05-03T21:52:56.448Z,102353.00
2023-05-03T21:55:30.712Z,102355.06
2023-05-03T21:58:03.551Z,102347.50
2023-05-03T22:00:36.317Z,102337.09
2023-05-03T22:03:09.851Z,102340.97
2023-05-03T22:05:44.769Z,102341.97
2023-05-03T22:08:18.553Z,102336.47
2023-05-03T22:10:53.485Z,102337.69
2023-05-03T22:13:26.402Z,102335.16
2023-05-03T22:16:05.364Z,102346.91
2023-05-03T22:18:38.606Z,102332.22
2023-05-03T22:21:11.677Z,102326.56
2023-05-03T22:23:44.350Z,102317.38
2023-05-03T22:26:18.616Z,102316.53
2023-05-03T22:28:52.329Z,102317.31
2023-05-03T22:31:26.458Z,102322.84
2023-05-03T22:33:59.366Z,102317.81
2023-05-03T22:36:32.049Z,102306.63
2023-05-03T22:39:05.910Z,102304.00
2023-05-03T22:41:40.376Z,102303.59
2023-05-03T22:44:13.234Z,102306.19
2023-05-03T22:46:45.858Z,102309.66
2023-05-03T22:49:18.774Z,102304.84
2023-05-03T22:51:51.883Z,102303.94
2023-05-03T22:54:25.212Z,102292.91
2023-05-03T22:56:59.566Z,102293.63
2023-05-03T22:59:32.487Z,102300.16
2023-05-03T23:02:05.244Z,102288.84
2023-05-03T23:04:38.018Z,102288.69
2023-05-03T23:07:10.735Z,102287.25
2023-05-03T23:09:44.089Z,102285.75
2023-05-03T23:12:18.674Z,102283.50
2023-05-03T23:14:51.367Z,102289.22
2023-05-03T23:17:24.503Z,102286.19
2023-05-03T23:19:57.280Z,102281.69
2023-05-03T23:22:30.166Z,102282.38
2023-05-03T23:25:03.624Z,102286.59
2023-05-03T23:27:38.934Z,102293.53
2023-05-03T23:30:13.820Z,102292.09
2023-05-03T23:32:47.424Z,102285.44
2023-05-03T23:35:24.036Z,102266.66
2023-05-03T23:37:56.692Z,102280.06
2023-05-03T23:40:29.984Z,102270.41
2023-05-03T23:43:04.178Z,102266.47
2023-05-03T23:45:38.637Z,102260.78
2023-05-03T23:48:19.478Z,102266.41
2023-05-03T23:50:52.317Z,102274.25
2023-05-03T23:53:25.685Z,102258.41
2023-05-03T23:55:58.780Z,102262.75
2023-05-03T23:58:33.400Z,102258.66
